Aérodrome :
LOGIN :

S'inscrire | Disclaimer

   EN    FR    IT 

 










Légende :    VFR   VFR Marginal   IFR   IFR Intensif   IFR Très Intensif
Visi : 
Plafond : 
>= 8 km
>= 3000ft
5 à 8 km
1000 à 3000 ft
1500m à 5 km
500 à 1000 ft
800 à 1500m
200 à 500 ft
< 800m
< 200 ft
Symboles :   Orages  Brouillard  Fortes neiges  Fortes précipitations  Vent > 20 kt
SIGMETs :   Divers  Orages  Givrage  Turbulence  Onde Orograph.  Cendres Volcan.






- Altitude de l'aérodrome : 1830 ft


EBLB - Butgenbach Elsenborn

DERNIER METAR :
  • 122233Z AUTO 18012KT 3300 -SN OVC007/// 00/M00 Q0984 YLO

METARs EXPIRÉS :
  • 122220Z AUTO 17012G22KT 5000 -SN OVC007/// 00/M00 Q0984 GRN
  • 122203Z AUTO 18012KT 4700 -SN OVC006/// 00/M00 Q0985 YLO
  • 122153Z AUTO 18012KT 6000 -RASN OVC006/// 00/M00 Q0985 YLO
  • 122144Z AUTO 18013KT 3700 -SN OVC006/// 00/M01 Q0985 YLO
  • 122125Z AUTO 18012G23KT 6000 OVC006/// 00/M01 Q0986 YLO
  • 122055Z AUTO 18011G22KT 9999 OVC006/// 00/M01 Q0987 YLO
  • 122025Z AUTO 18011KT 9999 OVC006/// 00/M01 Q0987 YLO
  • 122024Z AUTO 18010G21KT 9999 OVC006/// 00/M01 Q0987 YLO
  • 122003Z AUTO 18011KT 9999 -RASN OVC007/// 00/M01 Q0988 GRN

Prévision TAF périmée.



MET'MAP, la Météo Aéronautique d'un coup d'oeil ! - Copyright ORBIFLY Décembre 2007 - Disclaimer

ORBIFLY MET'MAP TEAM :

Programmation & Développement : Alexandra Zaïnal
Sur une idée originale de : Baudouin d'Aumeries
Assistance à la programmation : Marc-Olivier Méhu
Soutien technique & logistique : Manuel Goepfert

Contact : metmap@orbifly.com




SOURCES & CREDITS :

   NOAA